18 de agosto de 2022

Hora Código Tiempo Temp. Visibilidad Cielo nuboso Viento METAR/SPECI
21:25
V
18 °C 10 km+ - 020° 020° 5 kt METAR EHGG 181925Z AUTO 02005KT 9999 NCD 18/14 Q1013 NOSIG
20:55
V
18 °C 10 km+ - 030° 030° 5 kt METAR EHGG 181855Z AUTO 03005KT 360V060 9999 NCD 18/15 Q1013 NOSIG
20:25
V
19 °C 10 km+ - 010° 010° 5 kt METAR EHGG 181825Z AUTO 01005KT 340V040 9999 NCD 19/15 Q1013 NOSIG
19:55
V
20 °C 10 km+ - 340° 340° 7 kt METAR EHGG 181755Z AUTO 34007KT 310V040 9999 NCD 20/15 Q1013 NOSIG
19:25
V
21 °C 10 km+ - 350° 350° 5 kt METAR EHGG 181725Z AUTO 35005KT 320V040 9999 FEW025 21/15 Q1013 NOSIG
18:55
V
21 °C 10 km+ - 030° 030° 7 kt METAR EHGG 181655Z AUTO 03007KT 340V060 9999 NCD 21/16 Q1013 NOSIG
18:25
V
22 °C 10 km+ - 020° 020° 7 kt METAR EHGG 181625Z AUTO 02007KT 340V070 9999 NCD 22/15 Q1013 NOSIG
17:55
V
23 °C 10 km+ - 010° 010° 6 kt METAR EHGG 181555Z AUTO 01006KT 320V050 9999 NCD 23/15 Q1013 NOSIG
17:25
V
22 °C 10 km+ 3.800 ft 020° 020° 6 kt METAR EHGG 181525Z AUTO 02006KT 330V070 9999 FEW027 BKN038 22/15 Q1013 NOSIG
16:55
M
22 °C 10 km+ 2.500 ft 360° 360° 4 kt METAR EHGG 181455Z AUTO 36004KT 280V050 9999 BKN025 OVC035 22/15 Q1013 NOSIG
16:25
V
22 °C 10 km+ 3.200 ft 350° 350° 5 kt METAR EHGG 181425Z AUTO 35005KT 280V050 9999 FEW025 BKN032 22/16 Q1013 NOSIG
15:55
M
22 °C 10 km+ 2.300 ft 350° 350° 6 kt METAR EHGG 181355Z AUTO 35006KT 300V070 9999 BKN023 BKN030 22/15 Q1013 NOSIG
15:25
V
22 °C 10 km+ 3.200 ft 020° 020° 8 kt METAR EHGG 181325Z AUTO 02008KT 330V050 9999 FEW021 BKN032 BKN036 22/16 Q1013 NOSIG
14:55
V
21 °C 10 km+ 4.000 ft 020° 020° 6 kt METAR EHGG 181255Z AUTO 02006KT 330V060 9999 FEW026 OVC040 21/16 Q1013 NOSIG
14:25
M
21 °C 10 km+ 1.700 ft 020° 020° 8 kt METAR EHGG 181225Z AUTO 02008KT 320V060 9999 BKN017 BKN042 21/16 Q1014 NOSIG
13:55
M
22 °C 10 km+ 2.700 ft 350° 350° 8 kt METAR EHGG 181155Z AUTO 35008KT 300V040 9999 FEW017 SCT022 BKN027 22/16 Q1014 NOSIG
13:25
V
21 °C 10 km+ 3.700 ft 360° 360° 7 kt METAR EHGG 181125Z AUTO 36007KT 310V050 9999 FEW016 SCT028 OVC037 21/17 Q1014 NOSIG
12:55
M
20 °C 10 km+ 1.500 ft 360° 360° 7 kt METAR EHGG 181055Z AUTO 36007KT 330V040 9999 BKN015 BKN020 OVC028 20/17 Q1014 NOSIG
12:25
M
21 °C 10 km+ 1.600 ft 020° 020° 7 kt METAR EHGG 181025Z AUTO 02007KT 350V050 9999 SCT014 BKN016 BKN020 21/17 Q1014 NOSIG
11:55
M
20 °C 10 km+ 2.500 ft 360° 360° 7 kt METAR EHGG 180955Z AUTO 36007KT 310V040 9999 FEW011 SCT022 BKN025 20/17 Q1013 NOSIG
11:25
M
20 °C 10 km+ 1.600 ft 350° 350° 8 kt METAR EHGG 180925Z AUTO 35008KT 300V050 9999 FEW011 BKN016 BKN023 20/17 Q1013 TEMPO BKN014
10:55
M
20 °C 10 km+ 1.400 ft 350° 350° 7 kt METAR EHGG 180855Z AUTO 35007KT 300V030 9999 FEW011 BKN014 OVC016 20/18 Q1013 BECMG BKN016
10:25
M
19 °C 10 km+ 1.000 ft 360° 360° 7 kt METAR EHGG 180825Z AUTO 36007KT 320V050 9999 SCT007 BKN010 OVC013 19/17 Q1013 TEMPO SCT008 BKN012
09:55
I
19 °C 10 km+ 800 ft 360° 360° 9 kt METAR EHGG 180755Z AUTO 36009KT 310V040 9999 FEW006 BKN008 OVC010 19/18 Q1013 TEMPO SCT008 BKN012
09:25
I
20 °C 10 km+ 700 ft 350° 350° 6 kt METAR EHGG 180725Z AUTO 35006KT 300V030 9999 SCT006 BKN007 BKN010 20/18 Q1013 TEMPO SCT008 BKN012
08:55
I
19 °C 7 km 500 ft 280° 280° 5 kt METAR EHGG 180655Z AUTO 28005KT 250V320 7000 -RADZ SCT004 BKN005 OVC006 19/18 Q1012 TEMPO SCT008 BKN012
08:25
I
18 °C 9 km 600 ft 290° 290° 4 kt METAR EHGG 180625Z AUTO 29004KT 250V320 9000 SCT004 SCT005 BKN006 18/18 Q1012 TEMPO SCT008 BKN012
07:55
M
18 °C 5 km 1.000 ft 290° 290° 5 kt METAR EHGG 180555Z AUTO 29005KT 250V320 5000 FEW005 SCT009 BKN010 18/18 Q1012 REDZ TEMPO BKN008
07:25
M
18 °C 8 km 1.100 ft 270° 270° 4 kt METAR EHGG 180525Z AUTO 27004KT 240V300 8000 FEW008 OVC011 18/18 Q1012 REDZ TEMPO BKN008
06:55
M
18 °C 5 km 1.000 ft 270° 270° 3 kt METAR EHGG 180455Z AUTO 27003KT 5000 DZ FEW009 BKN010 OVC013 18/18 Q1012 TEMPO 7000 NSW
06:25
M
18 °C 6 km 2.600 ft 270° 270° 4 kt METAR EHGG 180425Z AUTO 27004KT 6000 FEW004 OVC026 18/17 Q1012
05:55
M
18 °C 7 km 2.500 ft 280° 280° 4 kt METAR EHGG 180355Z AUTO 28004KT 240V310 7000 OVC025 18/17 Q1012
05:25
M
18 °C 7 km 2.500 ft 300° 300° 4 kt METAR EHGG 180325Z AUTO 30004KT 7000 OVC025 18/17 Q1012
04:55
M
18 °C 8 km 2.600 ft 290° 290° 3 kt METAR EHGG 180255Z AUTO 29003KT 250V330 8000 OVC026 18/17 Q1012
04:25
V
18 °C 9 km 3.500 ft 310° 310° 4 kt METAR EHGG 180225Z AUTO 31004KT 9000 BKN035 OVC040 18/17 Q1012
03:55
M
18 °C 10 km+ 1.000 ft 300° 300° 3 kt METAR EHGG 180155Z AUTO 30003KT 9999 BKN010 OVC012 18/17 Q1012
03:25
V
18 °C 10 km+ 3.800 ft Var Var 2 kt METAR EHGG 180125Z AUTO VRB02KT 9999 FEW009 SCT028 BKN038 18/17 Q1012
02:55
V
18 °C 10 km+ 3.700 ft 350° 350° 4 kt METAR EHGG 180055Z AUTO 35004KT 310V020 9999 FEW007 SCT009 OVC037 18/18 Q1012
02:25
I
18 °C 10 km+ 800 ft 360° 360° 4 kt METAR EHGG 180025Z AUTO 36004KT 330V030 9999 SCT007/// BKN008/// BKN010/// 18/18 Q1012
01:55
V
18 °C 8 km 3.900 ft Var Var 2 kt METAR EHGG 172355Z AUTO VRB02KT 8000 FEW008 OVC039 18/18 Q1012
01:25
M
18 °C 7 km 3.900 ft 340° 340° 3 kt METAR EHGG 172325Z AUTO 34003KT 290V030 7000 FEW003 SCT004 OVC039 18/18 Q1012
00:55
V
18 °C 10 km+ 3.900 ft 020° 020° 5 kt METAR EHGG 172255Z AUTO 02005KT 350V050 9999 OVC039 18/18 Q1012
00:25
V
18 °C 10 km+ 4.100 ft 030° 030° 6 kt METAR EHGG 172225Z AUTO 03006KT 350V060 9999 FEW008 FEW015CB BKN041 OVC046 18/18 Q1012 RETS

17 de agosto de 2022

Hora Código Tiempo Temp. Visibilidad Cielo nuboso Viento METAR/SPECI
23:55
I
18 °C 3,5 km 4.800 ft 040° 040° 6 kt METAR EHGG 172155Z AUTO 04006KT 010V070 3500 +RA FEW007 FEW015CB OVC048 18/18 Q1012 REDZRA
23:25
I
18 °C 4,6 km 4.700 ft 010° 010° 6 kt METAR EHGG 172125Z AUTO 01006KT 4600 +RA FEW015CB SCT025 OVC047 18/18 Q1012
22:55
I
18 °C 4,7 km 4.700 ft 260° 260° 4 kt METAR EHGG 172055Z AUTO 26004KT 4700 FEW015CB SCT042 OVC047 18/18 Q1012 BECMG BKN006 TEMPO 2500 SHRA SCT015CB
22:25
V
18 °C 10 km+ 4.400 ft 320° 320° 3 kt METAR EHGG 172025Z AUTO 32003KT 9999 BKN044 18/18 Q1011 REDZ BECMG BKN006
21:55
V
18 °C 8 km - 330° 330° 4 kt METAR EHGG 171955Z AUTO 33004KT 300V010 8000 FEW015CB 18/18 Q1011 BECMG 6000 BKN006
21:25
V
18 °C 10 km+ - 360° 360° 3 kt METAR EHGG 171925Z AUTO 36003KT 290V050 9999 FEW015CB 18/18 Q1011 BECMG 6000 BKN006
20:55
V
18 °C 10 km+ - 030° 030° 6 kt METAR EHGG 171855Z AUTO 03006KT 360V060 9999 NSC 18/17 Q1011 BECMG 6000 BKN006
20:25
I
18 °C 10 km+ 700 ft 020° 020° 10 kt METAR EHGG 171825Z AUTO 02010KT 350V060 9999 FEW005 SCT006 BKN007 FEW015CB 18/17 Q1010 BECMG SCT020 TEMPO BKN006
19:55
V
19 °C 10 km+ - 010° 010° 9 kt METAR EHGG 171755Z AUTO 01009KT 320V040 9999 -RA SCT015CB 19/17 Q1010 BECMG SCT020
19:25
M
19 °C 8 km 1.500 ft 360° 360° 10 kt METAR EHGG 171725Z AUTO 36010KT 330V040 8000 -SHRA BKN015CB 19/18 Q1011 RETSRA BECMG NSW SCT020
18:55
M
19 °C 7 km 1.500 ft 010° 010° 9 kt METAR EHGG 171655Z AUTO 01009KT 320V050 7000 -TSRA BKN015CB 19/18 Q1011 TEMPO VRB15G25KT 4000 TSRA BECMG NSW SCT020
18:25
M
20 °C 6 km - 010° 010° 9 kt METAR EHGG 171625Z AUTO 01009KT 340V050 6000 -TSRA FEW000 SCT015CB 20/18 Q1011 RERA TEMPO VRB15G25KT 2000 TSRA BKN015CB
17:55
I
20 °C 4,4 km 1.500 ft 360° 360° 5 kt METAR EHGG 171555Z AUTO 36005KT 310V040 4400 TSRA BKN015CB BKN028 20/19 Q1011 TEMPO VRB15G25KT 2000 TSRA BKN015CB
17:25
V
21 °C 10 km+ - 360° 360° 6 kt METAR EHGG 171525Z AUTO 36006KT 320V040 9999 -SHRA FEW015CB SCT017 21/18 Q1011 REDZ TEMPO VRB15G25KT 2000 TSRA BKN015CB
16:55
V
22 °C 10 km+ - 030° 030° 12 kt METAR EHGG 171455Z AUTO 03012KT 340V060 9999 -DZ FEW016CB 22/17 Q1011 REDZ TEMPO VRB15G25KT 2000 TSRA BKN015CB
16:25
V
22 °C 10 km+ - 030° 030° 13 kt METAR EHGG 171425Z AUTO 03013KT 350V060 9999 FEW018 22/17 Q1011 NOSIG
15:55
V
23 °C 10 km+ - 030° 030° 11 kt METAR EHGG 171355Z AUTO 03011KT 360V070 9999 SCT016 23/18 Q1011 NOSIG
15:25
V
23 °C 10 km+ - 030° 030° 9 kt METAR EHGG 171325Z AUTO 03009KT 340V060 9999 FEW018 23/18 Q1011 NOSIG
14:55
V
23 °C 10 km+ - 030° 030° 11 kt METAR EHGG 171255Z AUTO 03011KT 340V060 9999 NSC 23/17 Q1011 NOSIG
14:25
V
23 °C 10 km+ - 020° 020° 12 kt METAR EHGG 171225Z AUTO 02012KT 340V060 9999 NSC 23/17 Q1011 NOSIG
13:55
V
23 °C 10 km+ - 010° 010° 11 kt METAR EHGG 171155Z AUTO 01011KT 320V060 9999 NSC 23/17 Q1011 NOSIG
13:25
V
23 °C 9 km - 020° 020° 10 kt METAR EHGG 171125Z AUTO 02010KT 340V060 9000 NSC 23/18 Q1011 NOSIG
12:55
V
22 °C 8 km - 030° 030° 8 kt METAR EHGG 171055Z AUTO 03008KT 350V070 8000 SCT013 22/18 Q1012 NOSIG
12:25
M
21 °C 7 km - 030° 030° 8 kt METAR EHGG 171025Z AUTO 03008KT 350V060 7000 FEW015 21/18 Q1011 BECMG 9999
11:55
M
21 °C 8 km 1.600 ft 030° 030° 8 kt METAR EHGG 170955Z AUTO 03008KT 350V070 8000 SCT014 BKN016 21/18 Q1012 BECMG NSC
11:25
M
21 °C 7 km 1.500 ft 010° 010° 7 kt METAR EHGG 170925Z AUTO 01007KT 310V060 7000 FEW012 BKN015 21/18 Q1012 BECMG 8000 NSC
10:55
M
21 °C 5 km 1.300 ft 030° 030° 8 kt METAR EHGG 170855Z AUTO 03008KT 010V070 5000 SCT010 BKN013 BKN015 21/18 Q1012 BECMG 8000 NSC
10:25
I
20 °C 4,1 km - 350° 350° 5 kt METAR EHGG 170825Z AUTO 35005KT 300V040 4100 BR FEW008 20/19 Q1011 BECMG 6000 NSW
09:55
I
19 °C 2,8 km - 350° 350° 5 kt METAR EHGG 170755Z AUTO 35005KT 310V030 2800 BR FEW005 19/19 Q1011 BECMG 6000 NSW
09:25
I
19 °C 2,1 km - 360° 360° 5 kt METAR EHGG 170725Z AUTO 36005KT 320V030 2100 BR FEW003 19/18 Q1011 BECMG 6000 NSW
08:55
L
18 °C 1,9 km 200 ft 050° 050° 6 kt METAR EHGG 170655Z AUTO 05006KT 010V080 1900 BR BKN002 OVC003 18/18 Q1011 BECMG 6000 NSW FEW008
08:25
L
18 °C 1,7 km 200 ft 040° 040° 4 kt METAR EHGG 170625Z AUTO 04004KT 1700 BR FEW001 BKN002 FEW015CB 18/18 Q1011 BECMG 4000 FEW008
07:55
L
18 °C 1,7 km 100 ft 050° 050° 4 kt METAR EHGG 170555Z AUTO 05004KT 010V100 1700 BR FEW000 BKN001 FEW015CB 18/18 Q1011 BECMG 4000 TEMPO 6000 SHRA FEW060CB
07:25
L
18 °C 250 m - 050° 050° 4 kt METAR EHGG 170525Z AUTO 05004KT 0250 R23/0400N FG OVC000 18/17 Q1011 BECMG 4000 BR TEMPO 6000 -SHRA FEW060CB
06:55
L
17 °C 500 m 100 ft 050° 050° 5 kt METAR EHGG 170455Z AUTO 05005KT 020V080 0500 R23/0500D FG BKN001 17/17 Q1010 BECMG 4000 TEMPO 6000 -SHRA FEW060CB
06:25
L
16 °C 200 m - 040° 040° 3 kt METAR EHGG 170425Z AUTO 04003KT 0200 R23/0325N FG FEW000 16/16 Q1010 NOSIG
05:55
L
17 °C 450 m - 020° 020° 3 kt METAR EHGG 170355Z AUTO 02003KT 340V050 0450 R23/0600N FG OVC000 17/17 Q1010
05:25
L
17 °C 350 m - 060° 060° 3 kt METAR EHGG 170325Z AUTO 06003KT 0350 R23/0450N FG VV000 17/17 Q1010
04:55
L
17 °C 250 m - 060° 060° 2 kt METAR EHGG 170255Z AUTO 06002KT 0250 R23/0350N FG VV000 17/17 Q1010 REDZ
04:25
L
16 °C 250 m - 070° 070° 3 kt METAR EHGG 170225Z AUTO 07003KT 0250 R23/0300D FG VV000 16/16 Q1010
03:55
L
15 °C 700 m - Var Var 2 kt METAR EHGG 170155Z AUTO VRB02KT 0700 R23/1000U FG VV000 15/15 Q1010
03:25
L
17 °C 450 m - 040° 040° 3 kt METAR EHGG 170125Z AUTO 04003KT 0450 R23/1400D FG BKN000 17/17 Q1010
02:55
I
17 °C 2,3 km - 080° 080° 3 kt METAR EHGG 170055Z AUTO 08003KT 2300 BR FEW000 17/17 Q1010
02:25
L
17 °C 500 m - 040° 040° 3 kt METAR EHGG 170025Z AUTO 04003KT 0500 R23/0450D FG NSC 17/17 Q1010
01:55
L
17 °C 250 m - 060° 060° 3 kt METAR EHGG 162355Z AUTO 06003KT 0250 R23/0325N FG NCD 17/17 Q1011
01:25
I
18 °C 1,8 km - 050° 050° 2 kt METAR EHGG 162325Z AUTO 05002KT 1800 BR NSC 18/18 Q1011
00:55
I
18 °C 3,2 km - 050° 050° 2 kt METAR EHGG 162255Z AUTO 05002KT 3200 BR NSC 18/18 Q1011
00:25
I
18 °C 4,3 km - 060° 060° 3 kt METAR EHGG 162225Z AUTO 06003KT 4300 BR NSC 18/18 Q1011

16 de agosto de 2022

Hora Código Tiempo Temp. Visibilidad Cielo nuboso Viento METAR/SPECI
23:55
M
19 °C 5 km - 040° 040° 3 kt METAR EHGG 162155Z AUTO 04003KT 010V080 5000 NSC 19/18 Q1011
23:25
I
19 °C 4,8 km - 040° 040° 3 kt METAR EHGG 162125Z AUTO 04003KT 4800 NSC 19/18 Q1011
22:55
M
18 °C 6 km - 050° 050° 4 kt METAR EHGG 162055Z AUTO 05004KT 6000 NSC 18/17 Q1010 BECMG 7000
22:25
V
19 °C 10 km+ - 030° 030° 3 kt METAR EHGG 162025Z AUTO 03003KT 9999 NSC 19/17 Q1010 NOSIG
21:55
V
19 °C 10 km+ - 330° 330° 1 kt METAR EHGG 161955Z AUTO 33001KT 9999 NSC 19/17 Q1010 NOSIG
21:25
V
21 °C 10 km+ - 340° 340° 4 kt METAR EHGG 161925Z AUTO 34004KT 310V010 9999 NSC 21/18 Q1010 NOSIG
20:55
V
22 °C 10 km+ - 320° 320° 6 kt METAR EHGG 161855Z AUTO 32006KT 9999 NSC 22/17 Q1009 NOSIG
20:25
V
23 °C 10 km+ - 320° 320° 5 kt METAR EHGG 161825Z AUTO 32005KT 9999 NSC 23/16 Q1009 NOSIG
19:55
V
24 °C 10 km+ - 300° 300° 6 kt METAR EHGG 161755Z AUTO 30006KT 9999 NSC 24/15 Q1009 NOSIG
19:25
V
25 °C 10 km+ - 300° 300° 6 kt METAR EHGG 161725Z AUTO 30006KT 250V330 9999 NSC 25/15 Q1009 NOSIG
18:55
V
26 °C 10 km+ - 300° 300° 6 kt METAR EHGG 161655Z AUTO 30006KT 260V330 9999 NSC 26/15 Q1008 NOSIG
18:25
V
27 °C 10 km+ - 280° 280° 7 kt METAR EHGG 161625Z AUTO 28007KT 230V350 9999 NSC 27/16 Q1008 NOSIG
17:55
V
27 °C 10 km+ - 280° 280° 7 kt METAR EHGG 161555Z AUTO 28007KT 250V310 9999 NSC 27/17 Q1008 NOSIG
17:25
V
28 °C 10 km+ - 290° 290° 10 kt METAR EHGG 161525Z AUTO 29010KT 260V330 9999 NSC 28/16 Q1008 NOSIG
16:55
V
27 °C 10 km+ - 270° 270° 8 kt METAR EHGG 161455Z AUTO 27008KT 200V290 9999 NSC 27/16 Q1008 NOSIG
Datos más antiguos

Nosotros y terceros seguimos tu comportamiento en Internet en nuestro sitio web con cookies. Si continúas, asumimos que estás de acuerdo con nuestra política de cookies. Más información